ADDS METAR Data INFO
IDs: Format: Raw Decoded Include TAF

Data at: 1505 UTC 11 Dec 2017

KSFB 111453Z 33011KT 10SM CLR 11/00 A3030 RMK AO2 SLP259 T01060000 50003
KSFB 111353Z 34007KT 10SM CLR 09/02 A3030 RMK AO2 SLP260 T00890022
KSFB 111253Z 30004KT 10SM CLR 04/02 A3030 RMK AO2 SLP260 T00390022
KSFB 111153Z 31003KT 10SM CLR 03/02 A3029 RMK AO2 SLP255 T00330017 10050 20017 58000
KSFB 111053Z AUTO 31004KT 10SM CLR 02/01 A3029 RMK AO2 SLP256 T00220011
KSFB 110953Z AUTO 33005KT 10SM CLR 02/01 A3029 RMK AO2 SLP257 T00170006
KSFB 110853Z AUTO 30003KT 10SM CLR 03/01 A3029 RMK AO2 SLP256 T00330011 56002
KSFB 110753Z AUTO 31004KT 10SM CLR 04/01 A3029 RMK AO2 SLP256 T00390011
KSFB 110653Z AUTO 30004KT 10SM CLR 04/02 A3029 RMK AO2 SLP257 T00440017
KSFB 110553Z AUTO 29005KT 10SM CLR 04/01 A3029 RMK AO2 SLP258 T00390011 10089 20033 58006
KSFB 110453Z AUTO 28005KT 10SM CLR 05/02 A3030 RMK AO2 SLP261 T00500017 401440028
KSFB 110353Z 28005KT 10SM CLR 05/01 A3032 RMK AO2 SLP267 T00500011
KSFB 110253Z 28006KT 10SM CLR 06/01 A3031 RMK AO2 SLP264 T00560011 53009
KSFB 110153Z 00000KT 10SM CLR 06/02 A3030 RMK AO2 SLP260 T00610017
KSFB 110053Z 27003KT 10SM CLR 08/02 A3029 RMK AO2 SLP257 T00830017
KSFB 102353Z 00000KT 10SM CLR 08/01 A3029 RMK AO2 SLP255 T00780011 10144 20078 53012
KSFB 102253Z 28005KT 10SM CLR 10/M01 A3026 RMK AO2 SLP247 T01001011
KSFB 102153Z 29008KT 10SM CLR 13/M03 A3026 RMK AO2 SLP246 T01281028
KSFB 102053Z 29006KT 10SM CLR 13/M02 A3025 RMK AO2 SLP243 T01331017 56008
KSFB 101953Z 34006KT 10SM CLR 14/M01 A3025 RMK AO2 SLP244 T01391011
KSFB 101853Z 35009KT 10SM CLR 13/M03 A3026 RMK AO2 SLP245 T01331033
KSFB 101753Z 31006KT 10SM CLR 12/M02 A3028 RMK AO2 SLP252 T01221017 10122 20028 58020
KSFB 101653Z 32008KT 10SM CLR 11/M02 A3030 RMK AO2 SLP259 T01111017
KSFB 101553Z 35010KT 10SM CLR 10/M01 A3033 RMK AO2 SLP269 T01001011
KSFB 101453Z 34011KT 10SM CLR 08/M01 A3033 RMK AO2 SLP272 T00831006 51017
KSFB 101353Z 34010KT 10SM CLR 07/01 A3032 RMK AO2 SLP266 T00670006
KSFB 101253Z 34009KT 10SM CLR 05/00 A3030 RMK AO2 SLP262 T00500000
KSFB 101153Z 31006KT 10SM CLR 03/M01 A3028 RMK AO2 SLP255 70002 T00331006 10056 20028 53018
KSFB 101053Z AUTO 33008KT 10SM CLR 04/M01 A3026 RMK AO2 SLP246 T00441006
KSFB 100953Z AUTO 31007KT 10SM CLR 03/M01 A3024 RMK AO2 SLP240 T00331011
KSFB 100853Z AUTO 31009KT 10SM CLR 04/M01 A3023 RMK AO2 SLP237 T00391011 53014
KSFB 100753Z AUTO 31011KT 10SM CLR 06/M01 A3021 RMK AO2 SLP228 T00561006
KSFB 100653Z AUTO 31010KT 10SM CLR 05/01 A3020 RMK AO2 SLP226 T00500006
KSFB 100553Z AUTO 29008KT 10SM CLR 05/02 A3019 RMK AO2 SLP224 T00500017 10094 20050 50012
KSFB 100453Z AUTO 30010KT 10SM CLR 06/02 A3019 RMK AO2 SLP224 T00560022 402390056
KSFB 100353Z AUTO 30008KT 10SM CLR 06/03 A3018 RMK AO2 SLP219 T00610028